Naytahwaush, Minnesota
Current Conditions -  °F | °C
As of 5:55 AM on Sunday 21 Dec 2014 (Local Time) from K3N8 Reporting Station
Haze Haze  
Wind Chill: 18°   Ceiling: 500
Heat Index: 29°   Visibility: 5mi
Dew Point: 28°   Wind: 16mph
Humidity: 96%   Direction: 180°S
Pressure: 29.77"   Gusts: 20mph
Location:  47.26°N, 95.63°W
Report Text: K3N8 211155Z AUTO 18014G17KT 5SM BR OVC005 M01/M02 A2977 RMK AO2 T10151021 11014 21017
Loading
Personal Weather Stations






























Interactive Weather Map New forecast layout! Learn more

10-Day Weather Forecast

Advertisements
Track Severe Weather on mobile